createdAt,value
2023-03-24T00:01:56.263Z,6.91
2023-03-24T00:04:25.129Z,6.93
2023-03-24T00:06:52.576Z,6.92
2023-03-24T00:09:19.913Z,6.93
2023-03-24T00:11:47.273Z,6.92
2023-03-24T00:14:14.149Z,6.89
2023-03-24T00:16:43.132Z,6.91
2023-03-24T00:19:13.586Z,6.89
2023-03-24T00:21:42.135Z,6.89
2023-03-24T00:24:10.086Z,6.89
2023-03-24T00:26:39.177Z,6.92
2023-03-24T00:29:08.067Z,6.92
2023-03-24T00:31:40.125Z,6.90
2023-03-24T00:34:08.962Z,6.90
2023-03-24T00:36:36.883Z,6.94
2023-03-24T00:39:06.369Z,6.94
2023-03-24T00:41:33.811Z,6.95
2023-03-24T00:44:03.604Z,6.94
2023-03-24T00:46:30.780Z,6.94
2023-03-24T00:49:05.887Z,6.96
2023-03-24T00:51:38.814Z,6.94
2023-03-24T00:54:09.435Z,6.90
2023-03-24T00:56:40.691Z,6.86
2023-03-24T00:59:10.258Z,6.84
2023-03-24T01:01:41.169Z,6.82
2023-03-24T01:04:08.595Z,6.85
2023-03-24T01:06:39.432Z,6.89
2023-03-24T01:09:07.443Z,6.86
2023-03-24T01:11:40.334Z,6.89
2023-03-24T01:14:08.799Z,6.90
2023-03-24T01:16:36.352Z,6.91
2023-03-24T01:19:04.337Z,6.91
2023-03-24T01:21:31.867Z,6.92
2023-03-24T01:23:58.744Z,6.91
2023-03-24T01:26:25.532Z,6.96
2023-03-24T01:28:52.365Z,6.98
2023-03-24T01:31:19.357Z,7.01
2023-03-24T01:33:46.243Z,7.04
2023-03-24T01:36:13.168Z,7.03
2023-03-24T01:38:40.145Z,7.04
2023-03-24T01:41:07.464Z,7.04
2023-03-24T01:43:35.992Z,7.03
2023-03-24T01:46:18.776Z,7.08
2023-03-24T01:48:55.304Z,7.07
2023-03-24T01:51:35.667Z,7.08
2023-03-24T01:54:18.670Z,7.06
2023-03-24T01:56:57.057Z,7.05
2023-03-24T01:59:27.444Z,7.00
2023-03-24T02:02:03.006Z,7.00
2023-03-24T02:04:34.660Z,6.99
2023-03-24T02:07:28.496Z,7.03
2023-03-24T02:09:55.465Z,6.99
2023-03-24T02:12:22.358Z,7.01
2023-03-24T02:14:50.025Z,7.04
2023-03-24T02:17:48.633Z,7.08
2023-03-24T02:20:40.307Z,7.17
2023-03-24T02:23:32.047Z,7.20
2023-03-24T02:26:20.908Z,7.26
2023-03-24T02:29:27.849Z,7.21
2023-03-24T02:32:22.971Z,7.24
2023-03-24T02:35:12.654Z,7.31
2023-03-24T02:38:24.001Z,7.36
2023-03-24T02:41:05.082Z,7.36
2023-03-24T02:43:39.760Z,7.34
2023-03-24T02:46:23.843Z,7.42
2023-03-24T02:49:16.358Z,7.48
2023-03-24T02:51:50.366Z,7.41
2023-03-24T02:54:56.312Z,7.47
2023-03-24T02:57:36.226Z,7.44
2023-03-24T03:00:21.440Z,7.45
2023-03-24T03:02:56.120Z,7.41
2023-03-24T03:05:34.584Z,7.40
2023-03-24T03:08:06.123Z,7.42
2023-03-24T03:10:39.276Z,7.44
2023-03-24T03:13:14.770Z,7.47
2023-03-24T03:15:46.583Z,7.44
2023-03-24T03:19:00.036Z,7.47
2023-03-24T03:21:32.781Z,7.45
2023-03-24T03:24:07.138Z,7.44
2023-03-24T03:26:34.693Z,7.44
2023-03-24T03:29:19.053Z,7.50
2023-03-24T03:32:07.990Z,7.45
2023-03-24T03:34:37.929Z,7.48
2023-03-24T03:37:22.744Z,7.51
2023-03-24T03:39:58.920Z,7.48
2023-03-24T03:42:25.926Z,7.46
2023-03-24T03:44:53.406Z,7.50
2023-03-24T03:47:23.072Z,7.50
2023-03-24T03:49:51.058Z,7.43
2023-03-24T03:52:18.416Z,7.26
2023-03-24T03:54:45.790Z,7.15
2023-03-24T03:57:13.883Z,7.07
2023-03-24T03:59:41.050Z,6.98
2023-03-24T04:02:13.834Z,6.94
2023-03-24T04:05:03.230Z,6.84
2023-03-24T04:07:40.063Z,6.88
2023-03-24T04:10:25.096Z,6.74
2023-03-24T04:13:15.740Z,6.72
2023-03-24T04:15:58.624Z,6.69
2023-03-24T04:18:47.249Z,6.66
2023-03-24T04:21:33.652Z,6.57
2023-03-24T04:24:06.746Z,6.44
2023-03-24T04:26:36.231Z,6.34
2023-03-24T04:29:09.220Z,6.30
2023-03-24T04:31:49.378Z,6.23
2023-03-24T04:34:29.351Z,6.19
2023-03-24T04:37:08.342Z,6.12
2023-03-24T04:39:39.273Z,6.00
2023-03-24T04:42:10.616Z,5.93
2023-03-24T04:44:37.770Z,5.87
2023-03-24T04:47:05.948Z,5.86
2023-03-24T04:49:32.732Z,5.81
2023-03-24T04:51:59.553Z,5.79
2023-03-24T04:54:29.866Z,5.77
2023-03-24T04:57:02.003Z,5.78
2023-03-24T04:59:30.505Z,5.74
2023-03-24T05:01:57.464Z,5.72
2023-03-24T05:04:26.181Z,5.72
2023-03-24T05:06:53.125Z,5.70
2023-03-24T05:09:21.895Z,5.71
2023-03-24T05:11:49.679Z,5.71
2023-03-24T05:14:17.101Z,5.68
2023-03-24T05:16:44.042Z,5.66
2023-03-24T05:19:11.104Z,5.63
2023-03-24T05:21:38.274Z,5.62
2023-03-24T05:24:06.836Z,5.59
2023-03-24T05:26:34.098Z,5.58
2023-03-24T05:29:01.023Z,5.58
2023-03-24T05:31:27.949Z,5.57
2023-03-24T05:33:55.664Z,5.55
2023-03-24T05:36:22.516Z,5.53
2023-03-24T05:38:49.484Z,5.53
2023-03-24T05:41:16.295Z,5.52
2023-03-24T05:43:43.119Z,5.54
2023-03-24T05:46:10.036Z,5.55
2023-03-24T05:48:36.760Z,5.57
2023-03-24T05:51:03.687Z,5.57
2023-03-24T05:53:31.164Z,5.59
2023-03-24T05:55:58.737Z,5.59
2023-03-24T05:58:25.810Z,5.61
2023-03-24T06:00:54.590Z,5.62
2023-03-24T06:03:21.636Z,5.63
2023-03-24T06:05:49.451Z,5.65
2023-03-24T06:08:17.306Z,5.66
2023-03-24T06:10:44.432Z,5.65
2023-03-24T06:13:11.404Z,5.64
2023-03-24T06:15:42.883Z,5.66
2023-03-24T06:18:09.993Z,5.68
2023-03-24T06:20:36.991Z,5.66
2023-03-24T06:23:03.887Z,5.63
2023-03-24T06:25:30.708Z,5.64
2023-03-24T06:28:04.044Z,5.62
2023-03-24T06:30:31.073Z,5.62
2023-03-24T06:32:58.362Z,5.59
2023-03-24T06:35:25.247Z,5.57
2023-03-24T06:37:52.141Z,5.59
2023-03-24T06:40:19.786Z,5.60
2023-03-24T06:42:46.642Z,5.63
2023-03-24T06:45:13.467Z,5.63
2023-03-24T06:47:40.831Z,5.63
2023-03-24T06:50:08.058Z,5.64
2023-03-24T06:52:35.743Z,5.69
2023-03-24T06:55:03.036Z,5.71
2023-03-24T06:57:30.406Z,5.73
2023-03-24T06:59:57.293Z,5.73
2023-03-24T07:02:24.272Z,5.77
2023-03-24T07:04:54.162Z,5.76
2023-03-24T07:07:53.372Z,5.77
2023-03-24T07:10:09.695Z,5.79
2023-03-24T07:12:36.731Z,5.78
2023-03-24T07:15:04.674Z,5.79
2023-03-24T07:17:31.721Z,5.79
2023-03-24T07:19:58.829Z,5.77
2023-03-24T07:22:25.928Z,5.79
2023-03-24T07:24:54.102Z,5.78
2023-03-24T07:27:21.400Z,5.79
2023-03-24T07:29:48.382Z,5.80
2023-03-24T07:32:15.488Z,5.81
2023-03-24T07:34:43.984Z,5.81
2023-03-24T07:37:11.398Z,5.83
2023-03-24T07:39:38.421Z,5.79
2023-03-24T07:42:06.121Z,5.79
2023-03-24T07:44:33.086Z,5.80
2023-03-24T07:46:59.945Z,5.79
2023-03-24T07:49:27.330Z,5.76
2023-03-24T07:51:54.264Z,5.76
2023-03-24T07:54:21.790Z,5.78
2023-03-24T07:56:48.865Z,5.82
2023-03-24T07:59:17.339Z,5.83
2023-03-24T08:01:44.603Z,5.86
2023-03-24T08:04:14.247Z,5.87
2023-03-24T08:06:44.190Z,5.87
2023-03-24T08:09:11.962Z,5.88
2023-03-24T08:11:39.405Z,5.90
2023-03-24T08:14:06.552Z,5.89
2023-03-24T08:16:33.556Z,5.90
2023-03-24T08:19:00.647Z,5.90
2023-03-24T08:21:27.686Z,5.91
2023-03-24T08:23:54.547Z,5.91
2023-03-24T08:26:22.671Z,5.90
2023-03-24T08:28:49.715Z,5.96
2023-03-24T08:31:16.709Z,5.97
2023-03-24T08:33:43.751Z,5.97
2023-03-24T08:36:10.882Z,5.99
2023-03-24T08:38:39.004Z,6.03
2023-03-24T08:41:07.246Z,6.03
2023-03-24T08:43:36.283Z,6.08
2023-03-24T08:46:03.521Z,6.09
2023-03-24T08:48:31.140Z,6.12
2023-03-24T08:50:57.969Z,6.15
2023-03-24T08:53:24.811Z,6.15
2023-03-24T08:58:31.966Z,6.16
2023-03-24T09:00:58.864Z,6.18
2023-03-24T09:03:26.352Z,6.17
2023-03-24T09:05:59.794Z,6.15
2023-03-24T09:08:28.181Z,6.20
2023-03-24T09:10:55.026Z,6.17
2023-03-24T09:13:22.242Z,6.20
2023-03-24T09:15:54.736Z,6.20
2023-03-24T09:18:22.276Z,6.21
2023-03-24T09:20:50.397Z,6.23
2023-03-24T09:23:17.605Z,6.24
2023-03-24T09:25:44.878Z,6.20
2023-03-24T09:28:12.043Z,6.19
2023-03-24T09:30:38.903Z,6.19
2023-03-24T09:33:06.343Z,6.18
2023-03-24T09:35:33.373Z,6.18
2023-03-24T09:38:00.557Z,6.17
2023-03-24T09:40:33.252Z,6.23
2023-03-24T09:43:24.146Z,6.34
2023-03-24T09:45:54.705Z,6.39
2023-03-24T09:48:47.211Z,6.45
2023-03-24T09:51:22.772Z,6.43
2023-03-24T09:54:04.850Z,6.41
2023-03-24T09:56:32.664Z,6.40
2023-03-24T09:59:06.200Z,6.35
2023-03-24T10:01:36.209Z,6.30
2023-03-24T10:04:05.108Z,6.28
2023-03-24T10:06:41.844Z,6.28
2023-03-24T10:09:28.570Z,6.27
2023-03-24T10:12:26.309Z,6.29
2023-03-24T10:15:09.596Z,6.27
2023-03-24T10:17:58.249Z,6.26
2023-03-24T10:20:38.333Z,6.24
2023-03-24T10:23:29.678Z,6.26
2023-03-24T10:26:28.517Z,6.31
2023-03-24T10:29:22.609Z,6.35
2023-03-24T10:31:58.039Z,6.35
2023-03-24T10:34:30.479Z,6.35
2023-03-24T10:36:59.615Z,6.39
2023-03-24T10:39:37.871Z,6.41
2023-03-24T10:42:21.816Z,6.49
2023-03-24T10:44:51.320Z,6.50
2023-03-24T10:47:32.545Z,6.61
2023-03-24T10:50:12.752Z,6.69
2023-03-24T10:52:45.484Z,6.68
2023-03-24T10:55:19.341Z,6.67
2023-03-24T10:57:56.890Z,6.65
2023-03-24T11:00:32.305Z,6.67
2023-03-24T11:03:21.478Z,6.69
2023-03-24T11:05:48.764Z,6.72
2023-03-24T11:08:34.076Z,6.78
2023-03-24T11:11:00.952Z,6.72
2023-03-24T11:13:32.452Z,6.75
2023-03-24T11:16:14.350Z,6.87
2023-03-24T11:18:59.227Z,7.16
2023-03-24T11:21:28.658Z,7.34
2023-03-24T11:23:59.695Z,7.38
2023-03-24T11:26:35.926Z,7.36
2023-03-24T11:29:22.340Z,7.41
2023-03-24T11:31:58.525Z,7.50
2023-03-24T11:34:46.422Z,7.68
2023-03-24T11:37:29.614Z,7.68
2023-03-24T11:40:07.186Z,7.61
2023-03-24T11:42:34.128Z,7.63
2023-03-24T11:45:03.848Z,7.61
2023-03-24T11:47:33.263Z,7.62
2023-03-24T11:50:12.237Z,7.59
2023-03-24T11:52:55.054Z,7.69
2023-03-24T11:55:51.033Z,7.64
2023-03-24T11:58:40.563Z,7.70
2023-03-24T12:01:33.439Z,7.69
2023-03-24T12:04:29.420Z,7.73
2023-03-24T12:07:08.025Z,7.61
2023-03-24T12:09:53.688Z,7.53
2023-03-24T12:12:44.785Z,7.51
2023-03-24T12:15:28.965Z,7.55
2023-03-24T12:18:25.472Z,7.56
2023-03-24T12:21:37.548Z,7.57
2023-03-24T12:24:10.071Z,7.54
2023-03-24T12:26:39.292Z,7.57
2023-03-24T12:29:06.336Z,7.65
2023-03-24T12:31:36.038Z,7.95
2023-03-24T12:34:27.827Z,8.12
2023-03-24T12:37:14.695Z,8.00
2023-03-24T12:40:19.561Z,7.99
2023-03-24T12:42:47.052Z,8.08
2023-03-24T12:45:29.130Z,8.90
2023-03-24T12:48:05.095Z,9.30
2023-03-24T12:50:34.700Z,9.07
2023-03-24T12:53:34.574Z,9.07
2023-03-24T12:56:10.103Z,9.01
2023-03-24T12:58:39.861Z,8.90
2023-03-24T13:01:35.051Z,8.78
2023-03-24T13:04:01.944Z,8.56
2023-03-24T13:06:47.407Z,8.44
2023-03-24T13:09:40.265Z,8.30
2023-03-24T13:12:30.362Z,8.27
2023-03-24T13:15:12.410Z,8.22
2023-03-24T13:18:10.422Z,8.26
2023-03-24T13:20:54.429Z,8.32
2023-03-24T13:23:46.248Z,8.36
2023-03-24T13:26:36.763Z,8.50
2023-03-24T13:29:03.894Z,8.50
2023-03-24T13:31:54.088Z,8.61
2023-03-24T13:34:28.748Z,8.55
2023-03-24T13:37:02.691Z,8.89
2023-03-24T13:39:31.466Z,9.71
2023-03-24T13:41:59.496Z,10.30
2023-03-24T13:44:49.792Z,11.02
2023-03-24T13:47:18.410Z,11.73
2023-03-24T13:50:13.476Z,12.33
2023-03-24T13:52:46.758Z,12.59
2023-03-24T13:55:26.187Z,12.24
2023-03-24T13:58:13.212Z,11.19
2023-03-24T14:01:05.492Z,10.67
2023-03-24T14:03:36.831Z,10.31
2023-03-24T14:06:07.568Z,9.70
2023-03-24T14:08:43.682Z,9.57
2023-03-24T14:11:41.452Z,9.29
2023-03-24T14:14:20.308Z,9.15
2023-03-24T14:17:05.318Z,9.07
2023-03-24T14:19:39.428Z,8.89
2023-03-24T14:22:11.937Z,8.80
2023-03-24T14:24:40.431Z,8.63
2023-03-24T14:27:35.056Z,8.60
2023-03-24T14:30:11.290Z,8.52
2023-03-24T14:32:46.562Z,8.52
2023-03-24T14:35:34.482Z,8.49
2023-03-24T14:38:16.376Z,8.46
2023-03-24T14:40:52.779Z,8.44
2023-03-24T14:43:26.051Z,8.37
2023-03-24T14:46:13.584Z,8.42
2023-03-24T14:48:51.655Z,8.41
2023-03-24T14:51:29.001Z,8.35
2023-03-24T14:53:59.574Z,8.37
2023-03-24T14:56:35.039Z,8.37
2023-03-24T14:59:08.724Z,8.35
2023-03-24T15:01:36.195Z,8.25
2023-03-24T15:04:07.190Z,8.28
2023-03-24T15:06:44.720Z,8.29
2023-03-24T15:09:11.652Z,8.22
2023-03-24T15:11:40.556Z,8.20
2023-03-24T15:14:22.795Z,8.20
2023-03-24T15:17:03.049Z,8.18
2023-03-24T15:19:31.472Z,8.18
2023-03-24T15:22:11.706Z,8.17
2023-03-24T15:24:42.321Z,8.15
2023-03-24T15:27:15.570Z,8.20
2023-03-24T15:29:44.233Z,8.17
2023-03-24T15:32:19.248Z,8.11
2023-03-24T15:34:52.063Z,8.09
2023-03-24T15:37:34.919Z,8.09
2023-03-24T15:40:15.109Z,8.10
2023-03-24T15:42:46.270Z,8.02
2023-03-24T15:45:28.865Z,8.14
2023-03-24T15:47:56.954Z,8.02
2023-03-24T15:50:34.519Z,8.02
2023-03-24T15:53:19.586Z,7.97
2023-03-24T15:55:46.480Z,7.94
2023-03-24T15:58:28.523Z,7.95
2023-03-24T16:00:58.024Z,7.93
2023-03-24T16:03:26.563Z,7.84
2023-03-24T16:05:56.150Z,7.83
2023-03-24T16:08:31.698Z,7.84
2023-03-24T16:11:01.529Z,7.81
2023-03-24T16:13:28.726Z,7.82
2023-03-24T16:16:00.125Z,7.83
2023-03-24T16:18:33.251Z,7.81
2023-03-24T16:21:13.628Z,7.80
2023-03-24T16:23:42.416Z,7.77
2023-03-24T16:26:27.417Z,7.85
2023-03-24T16:28:57.007Z,7.76
2023-03-24T16:31:30.720Z,7.74
2023-03-24T16:33:58.269Z,7.73
2023-03-24T16:36:28.459Z,7.71
2023-03-24T16:38:57.798Z,7.71
2023-03-24T16:41:25.510Z,7.70
2023-03-24T16:43:53.295Z,7.74
2023-03-24T16:46:26.407Z,7.74
2023-03-24T16:48:53.750Z,7.68
2023-03-24T16:51:20.636Z,7.68
2023-03-24T16:53:48.126Z,7.68
2023-03-24T16:56:18.065Z,7.70
2023-03-24T16:58:48.057Z,7.70
2023-03-24T17:01:39.727Z,7.76
2023-03-24T17:04:16.346Z,7.80
2023-03-24T17:06:53.532Z,7.83
2023-03-24T17:09:21.032Z,7.84
2023-03-24T17:11:51.578Z,7.84
2023-03-24T17:14:18.734Z,7.82
2023-03-24T17:16:49.162Z,7.80
2023-03-24T17:19:18.946Z,7.72
2023-03-24T17:22:11.236Z,7.70
2023-03-24T17:24:41.771Z,7.75
2023-03-24T17:27:13.815Z,7.68
2023-03-24T17:29:40.428Z,7.61
2023-03-24T17:32:07.094Z,7.61
2023-03-24T17:34:33.955Z,7.60
2023-03-24T17:37:00.887Z,7.57
2023-03-24T17:39:27.468Z,7.57
2023-03-24T17:41:57.627Z,7.52
2023-03-24T17:44:24.352Z,7.52
2023-03-24T17:46:51.382Z,7.39
2023-03-24T17:49:18.122Z,7.31
2023-03-24T17:51:44.843Z,7.26
2023-03-24T17:54:12.290Z,7.18
2023-03-24T17:56:39.212Z,7.13
2023-03-24T17:59:05.966Z,7.08
2023-03-24T18:01:35.316Z,7.05
2023-03-24T18:04:02.052Z,7.02
2023-03-24T18:06:30.753Z,6.95
2023-03-24T18:08:57.859Z,6.92
2023-03-24T18:11:24.377Z,6.82
2023-03-24T18:13:52.059Z,6.83
2023-03-24T18:16:21.866Z,6.80
2023-03-24T18:18:49.274Z,6.81
2023-03-24T18:21:16.191Z,6.74
2023-03-24T18:23:42.889Z,6.75
2023-03-24T18:26:09.572Z,6.75
2023-03-24T18:28:37.570Z,6.73
2023-03-24T18:31:10.506Z,6.72
2023-03-24T18:33:37.143Z,6.74
2023-03-24T18:36:04.602Z,6.72
2023-03-24T18:38:31.800Z,6.71
2023-03-24T18:40:58.382Z,6.74
2023-03-24T18:43:25.287Z,6.73
2023-03-24T18:45:52.249Z,6.63
2023-03-24T18:48:19.463Z,6.56
2023-03-24T18:50:47.831Z,6.55
2023-03-24T18:53:14.870Z,6.55
2023-03-24T18:55:46.700Z,6.53
2023-03-24T18:58:15.474Z,6.53
2023-03-24T19:00:42.985Z,6.46
2023-03-24T19:03:10.238Z,6.40
2023-03-24T19:05:37.279Z,6.40
2023-03-24T19:08:07.520Z,6.42
2023-03-24T19:10:38.109Z,6.46
2023-03-24T19:13:05.989Z,6.47
2023-03-24T19:15:35.507Z,6.45
2023-03-24T19:18:03.713Z,6.39
2023-03-24T19:20:30.743Z,6.30
2023-03-24T19:22:57.348Z,6.22
2023-03-24T19:25:24.747Z,6.11
2023-03-24T19:27:51.945Z,6.06
2023-03-24T19:30:18.680Z,5.97
2023-03-24T19:32:46.742Z,5.96
2023-03-24T19:35:13.534Z,5.99
2023-03-24T19:37:40.645Z,6.03
2023-03-24T19:40:11.885Z,6.04
2023-03-24T19:42:41.796Z,6.02
2023-03-24T19:45:08.964Z,6.00
2023-03-24T19:47:35.632Z,5.95
2023-03-24T19:50:03.364Z,5.86
2023-03-24T19:52:30.249Z,5.83
2023-03-24T19:54:56.891Z,5.81
2023-03-24T19:57:24.086Z,5.77
2023-03-24T19:59:51.111Z,5.74
2023-03-24T20:02:18.865Z,5.71
2023-03-24T20:04:45.838Z,5.69
2023-03-24T20:07:12.546Z,5.63
2023-03-24T20:09:39.119Z,5.60
2023-03-24T20:12:06.114Z,5.57
2023-03-24T20:14:33.751Z,5.55
2023-03-24T20:17:00.813Z,5.52
2023-03-24T20:19:27.665Z,5.48
2023-03-24T20:21:54.363Z,5.46
2023-03-24T20:24:21.123Z,5.43
2023-03-24T20:26:48.498Z,5.44
2023-03-24T20:29:15.425Z,5.41
2023-03-24T20:31:42.988Z,5.37
2023-03-24T20:34:10.861Z,5.32
2023-03-24T20:36:38.532Z,5.28
2023-03-24T20:39:05.955Z,5.27
2023-03-24T20:41:32.947Z,5.24
2023-03-24T20:43:59.705Z,5.23
2023-03-24T20:46:26.322Z,5.22
2023-03-24T20:48:53.056Z,5.18
2023-03-24T20:51:19.934Z,5.12
2023-03-24T20:53:49.781Z,5.11
2023-03-24T20:56:16.946Z,5.07
2023-03-24T20:58:44.711Z,5.04
2023-03-24T21:01:22.347Z,5.03
2023-03-24T21:03:50.409Z,5.03
2023-03-24T21:06:17.392Z,5.03
2023-03-24T21:08:45.230Z,5.04
2023-03-24T21:11:12.064Z,5.02
2023-03-24T21:13:38.962Z,4.99
2023-03-24T21:16:08.088Z,4.98
2023-03-24T21:18:36.117Z,4.98
2023-03-24T21:21:05.415Z,5.07
2023-03-24T21:23:34.257Z,5.06
2023-03-24T21:26:01.603Z,5.04
2023-03-24T21:28:30.420Z,5.07
2023-03-24T21:30:58.208Z,5.07
2023-03-24T21:33:24.830Z,5.08
2023-03-24T21:35:51.904Z,5.11
2023-03-24T21:38:18.836Z,5.12
2023-03-24T21:40:46.497Z,5.12
2023-03-24T21:43:14.857Z,5.10
2023-03-24T21:45:46.350Z,5.07
2023-03-24T21:48:14.125Z,5.05
2023-03-24T21:50:42.755Z,5.08
2023-03-24T21:53:15.549Z,5.06
2023-03-24T21:55:52.637Z,5.07
2023-03-24T21:58:19.617Z,5.11
2023-03-24T22:00:46.838Z,5.10
2023-03-24T22:03:13.611Z,5.15
2023-03-24T22:05:40.450Z,5.10
2023-03-24T22:08:07.240Z,5.08
2023-03-24T22:10:37.134Z,5.09
2023-03-24T22:13:04.265Z,5.11
2023-03-24T22:15:32.512Z,5.05
2023-03-24T22:17:59.975Z,5.06
2023-03-24T22:20:28.274Z,5.07
2023-03-24T22:22:54.936Z,5.03
2023-03-24T22:25:21.605Z,4.98
2023-03-24T22:27:50.014Z,5.01
2023-03-24T22:30:18.138Z,5.04
2023-03-24T22:32:44.734Z,5.07
2023-03-24T22:35:11.350Z,5.07
2023-03-24T22:37:37.859Z,5.04
2023-03-24T22:40:05.762Z,5.05
2023-03-24T22:42:32.355Z,5.00
2023-03-24T22:44:58.917Z,5.00
2023-03-24T22:47:25.672Z,4.96
2023-03-24T22:49:52.287Z,4.89
2023-03-24T22:52:18.857Z,4.84
2023-03-24T22:54:45.455Z,4.80
2023-03-24T22:57:12.160Z,4.83
2023-03-24T22:59:38.780Z,4.81
2023-03-24T23:02:10.091Z,4.75
2023-03-24T23:04:37.237Z,4.72
2023-03-24T23:07:05.269Z,4.72
2023-03-24T23:09:31.871Z,4.67
2023-03-24T23:11:58.456Z,4.64
2023-03-24T23:14:25.556Z,4.59
2023-03-24T23:16:52.459Z,4.57
2023-03-24T23:19:19.505Z,4.52
2023-03-24T23:21:46.028Z,4.53
2023-03-24T23:24:12.592Z,4.55
2023-03-24T23:26:39.112Z,4.54
2023-03-24T23:29:05.855Z,4.52
2023-03-24T23:31:32.440Z,4.53
2023-03-24T23:34:00.220Z,4.49
2023-03-24T23:36:28.273Z,4.44
2023-03-24T23:38:55.772Z,4.46
2023-03-24T23:41:22.455Z,4.43
2023-03-24T23:43:50.162Z,4.35
2023-03-24T23:46:17.321Z,4.31
2023-03-24T23:48:43.974Z,4.28
2023-03-24T23:51:10.560Z,4.26
2023-03-24T23:53:37.529Z,4.25
2023-03-24T23:56:08.859Z,4.27
2023-03-24T23:58:37.081Z,4.22
